Time;durP1;ratioP1;P1;durP2;ratioP2;P2;SDS_P1;SDS_P2;PMS_P1;PMS_P2;Temp;Humidity;BMP_temperature;BMP_pressure;BME280_temperature;BME280_humidity;BME280_pressure;Samples;Min_cycle;Max_cycle;Signal;HPM_P1;HPM_P2
2023/04/14 00:00:07;;;;;;;4.63;3.10;;;;;;;12.75;40.95;92962.28;4988168;28;20567;-78
2023/04/14 00:02:34;;;;;;;5.72;3.40;;;;;;;12.59;40.78;92958.84;4985616;28;20027;-77
2023/04/14 00:05:00;;;;;;;4.00;3.03;;;;;;;12.57;40.89;92937.03;4985696;28;20041;-78
2023/04/14 00:07:25;;;;;;;4.35;3.28;;;;;;;12.53;40.99;92922.84;4990206;28;20040;-77
2023/04/14 00:09:51;;;;;;;7.85;3.42;;;;;;;12.66;40.98;92928.91;5004837;28;20045;-77
2023/04/14 00:12:16;;;;;;;8.38;3.50;;;;;;;12.77;40.75;92943.25;5003040;28;20443;-79
2023/04/14 00:14:42;;;;;;;5.03;3.30;;;;;;;12.29;40.99;92880.41;5008659;28;20079;-78
2023/04/14 00:17:08;;;;;;;6.18;3.97;;;;;;;12.72;40.39;92951.50;5004982;28;20491;-77
2023/04/14 00:19:33;;;;;;;4.82;4.35;;;;;;;12.58;40.94;92940.50;5005249;28;20038;-79
2023/04/14 00:21:59;;;;;;;6.88;3.33;;;;;;;12.71;40.05;92924.06;5005811;28;20448;-77
2023/04/14 00:24:24;;;;;;;3.13;2.70;;;;;;;12.70;40.66;92937.75;5004851;28;20453;-77
2023/04/14 00:26:50;;;;;;;6.45;3.15;;;;;;;12.64;40.94;92934.59;5004911;28;20521;-77
2023/04/14 00:29:15;;;;;;;3.55;2.60;;;;;;;12.48;41.25;92920.47;5004287;28;20037;-78
2023/04/14 00:31:41;;;;;;;3.72;2.60;;;;;;;12.69;40.64;92931.66;5000249;28;20029;-78
2023/04/14 00:34:06;;;;;;;6.20;2.97;;;;;;;12.61;41.06;92937.97;5005239;28;20026;-78
2023/04/14 00:36:31;;;;;;;4.15;2.70;;;;;;;12.65;41.28;92935.34;5013594;28;20018;-78
2023/04/14 00:38:57;;;;;;;3.55;2.90;;;;;;;12.50;41.53;92912.91;5004290;28;20161;-79
2023/04/14 00:41:24;;;;;;;3.38;2.85;;;;;;;12.44;41.11;92901.72;5007987;28;20134;-77
2023/04/14 00:43:53;;;;;;;6.35;3.13;;;;;;;12.61;41.21;92923.84;5006201;28;20034;-78
2023/04/14 00:46:19;;;;;;;4.50;3.30;;;;;;;12.65;40.40;92925.47;5005338;28;20045;-80
2023/04/14 00:48:44;;;;;;;4.30;2.67;;;;;;;12.64;41.11;92921.25;5010112;28;20025;-77
2023/04/14 00:51:10;;;;;;;4.15;3.13;;;;;;;12.58;41.42;92911.97;5007490;28;20522;-77
2023/04/14 00:53:36;;;;;;;3.70;2.90;;;;;;;12.39;41.84;92901.97;5007309;28;20056;-79
2023/04/14 00:56:04;;;;;;;4.07;2.60;;;;;;;12.46;41.40;92918.16;5009475;28;20033;-78
2023/04/14 00:58:30;;;;;;;12.80;5.57;;;;;;;11.52;43.35;92930.59;5008121;28;20038;-77
2023/04/14 01:00:57;;;;;;;10.48;7.30;;;;;;;11.49;43.20;92899.31;5009677;28;20029;-78
2023/04/14 01:03:23;;;;;;;8.65;4.25;;;;;;;11.94;43.10;92923.72;5008153;28;20491;-78
2023/04/14 01:05:49;;;;;;;9.30;4.15;;;;;;;11.95;42.67;92903.97;5007918;28;20042;-77
2023/04/14 01:08:16;;;;;;;6.32;4.20;;;;;;;12.03;42.86;92908.34;5007645;28;20041;-77
2023/04/14 01:10:52;;;;;;;6.53;3.63;;;;;;;12.00;42.31;92886.94;5008491;28;20119;-78
2023/04/14 01:13:32;;;;;;;6.63;3.95;;;;;;;12.40;42.54;92918.75;5007823;28;20083;-78
2023/04/14 01:16:02;;;;;;;7.30;3.95;;;;;;;12.28;42.71;92929.50;5009689;28;20080;-78
2023/04/14 01:18:34;;;;;;;5.60;4.03;;;;;;;12.23;42.81;92929.75;5008142;28;20100;-77
2023/04/14 01:21:06;;;;;;;6.63;3.70;;;;;;;12.14;41.18;92905.94;5008870;28;20455;-77
2023/04/14 01:23:41;;;;;;;4.80;3.55;;;;;;;11.90;41.83;92898.88;5008086;28;20026;-76
2023/04/14 01:26:09;;;;;;;4.87;3.23;;;;;;;11.93;42.25;92916.84;5008896;28;20033;-77
2023/04/14 01:28:44;;;;;;;7.32;3.67;;;;;;;11.84;42.20;92886.91;5006809;28;20038;-78
2023/04/14 01:31:26;;;;;;;5.03;3.90;;;;;;;11.97;42.78;92892.97;5007853;28;20540;-78
2023/04/14 01:34:14;;;;;;;4.50;3.28;;;;;;;11.80;43.30;92869.31;5014950;28;20126;-78
2023/04/14 01:36:51;;;;;;;6.57;3.40;;;;;;;12.13;43.16;92911.59;5008050;28;20556;-77
2023/04/14 01:39:19;;;;;;;5.65;3.85;;;;;;;12.13;43.11;92898.28;5007038;28;20041;-78
2023/04/14 01:41:51;;;;;;;5.80;3.92;;;;;;;12.18;41.71;92901.47;5008929;28;20037;-77
2023/04/14 01:44:20;;;;;;;6.63;4.00;;;;;;;12.20;41.47;92919.78;5005933;28;20049;-78
2023/04/14 01:46:48;;;;;;;4.70;3.60;;;;;;;12.23;41.20;92914.53;5006321;28;20061;-78
2023/04/14 01:49:19;;;;;;;7.30;4.57;;;;;;;12.09;41.71;92886.75;5006433;28;20040;-78
2023/04/14 01:51:46;;;;;;;5.70;4.13;;;;;;;12.16;41.51;92902.94;5007977;28;20026;-77
2023/04/14 01:54:13;;;;;;;6.45;4.10;;;;;;;12.26;41.32;92908.53;5007539;28;20128;-77
2023/04/14 01:56:40;;;;;;;7.05;3.95;;;;;;;12.23;40.85;92887.09;5004477;28;20042;-78
2023/04/14 01:59:08;;;;;;;6.55;3.70;;;;;;;12.35;41.43;92900.34;5021987;28;20615;-78
2023/04/14 02:01:35;;;;;;;6.93;3.97;;;;;;;12.31;41.40;92905.59;5007668;28;20428;-77
2023/04/14 02:04:02;;;;;;;6.32;4.05;;;;;;;12.22;41.96;92893.56;5007258;28;20029;-78
2023/04/14 02:06:30;;;;;;;7.07;4.15;;;;;;;12.35;42.26;92900.34;5008286;28;20057;-77
2023/04/14 02:09:00;;;;;;;6.43;4.07;;;;;;;12.45;41.55;92915.81;5005425;28;21088;-79
2023/04/14 02:11:28;;;;;;;5.30;4.35;;;;;;;12.35;42.86;92906.47;5005930;28;20045;-77
2023/04/14 02:13:55;;;;;;;5.95;3.90;;;;;;;12.33;41.31;92891.91;5005872;28;20209;-77
2023/04/14 02:16:24;;;;;;;7.68;3.97;;;;;;;12.52;41.03;92902.63;5005147;28;20041;-77
2023/04/14 02:18:50;;;;;;;6.22;3.95;;;;;;;12.39;41.81;92907.31;5008633;28;20572;-77
2023/04/14 02:21:17;;;;;;;8.50;3.88;;;;;;;12.28;42.44;92894.84;5004464;28;20041;-78
2023/04/14 02:23:42;;;;;;;6.05;4.10;;;;;;;12.24;42.20;92909.97;5007513;28;20519;-77
2023/04/14 02:26:15;;;;;;;9.48;5.55;;;;;;;12.19;41.94;92881.69;5012183;28;20117;-78
2023/04/14 02:28:48;;;;;;;5.97;4.68;;;;;;;12.10;42.21;92882.97;5005584;28;20029;-77
2023/04/14 02:31:20;;;;;;;5.25;4.05;;;;;;;12.07;41.61;92881.03;5007887;28;20495;-78
2023/04/14 02:33:50;;;;;;;5.32;4.45;;;;;;;12.25;41.61;92893.66;5004955;28;20115;-77
2023/04/14 02:36:31;;;;;;;9.00;6.07;;;;;;;12.24;41.85;92899.31;5006582;28;20049;-77
2023/04/14 02:39:10;;;;;;;8.10;5.20;;;;;;;11.98;41.99;92887.28;5005139;28;20083;-79
2023/04/14 02:41:39;;;;;;;6.75;4.22;;;;;;;11.51;43.42;92913.06;5006143;28;21213;-77
2023/04/14 02:44:09;;;;;;;5.85;3.78;;;;;;;11.60;43.73;92913.69;5004906;28;20627;-77
2023/04/14 02:46:40;;;;;;;9.00;4.18;;;;;;;11.79;43.54;92900.50;5006682;28;20176;-78
2023/04/14 02:49:09;;;;;;;6.32;3.90;;;;;;;11.88;43.34;92877.13;5013190;28;20103;-78
2023/04/14 02:51:37;;;;;;;4.72;3.42;;;;;;;12.13;42.91;92892.94;5007154;28;20084;-78
2023/04/14 02:54:04;;;;;;;6.72;4.13;;;;;;;11.61;43.33;92854.00;5005100;28;20412;-78
2023/04/14 02:56:30;;;;;;;6.25;5.20;;;;;;;11.85;43.04;92899.13;5007726;28;20033;-77
2023/04/14 02:58:57;;;;;;;6.47;4.57;;;;;;;11.86;43.65;92879.38;5001913;28;20037;-78
2023/04/14 03:01:24;;;;;;;4.82;3.22;;;;;;;11.76;43.58;92884.44;5004744;28;20041;-77
2023/04/14 03:03:52;;;;;;;4.95;3.88;;;;;;;11.88;44.36;92887.03;5012610;28;20124;-79
2023/04/14 03:06:17;;;;;;;7.60;3.80;;;;;;;11.81;43.62;92881.50;5006796;28;20084;-78
2023/04/14 03:08:44;;;;;;;8.07;4.05;;;;;;;11.74;43.68;92842.16;5010557;28;20481;-78
2023/04/14 03:11:12;;;;;;;5.70;4.03;;;;;;;12.08;43.53;92882.56;5006170;28;20033;-77
2023/04/14 03:13:40;;;;;;;7.32;3.95;;;;;;;12.15;43.03;92874.72;5004208;28;20761;-77
2023/04/14 03:16:06;;;;;;;7.57;3.58;;;;;;;12.11;43.19;92885.31;5006098;28;20029;-78
2023/04/14 03:18:33;;;;;;;5.65;4.45;;;;;;;12.18;43.21;92895.34;5006694;28;21499;-77
2023/04/14 03:21:01;;;;;;;4.28;3.03;;;;;;;11.98;42.82;92881.16;5007784;28;20042;-78
2023/04/14 03:23:27;;;;;;;5.10;3.65;;;;;;;12.01;42.91;92878.63;5003362;28;20038;-77
2023/04/14 03:25:54;;;;;;;5.03;3.70;;;;;;;11.93;43.35;92860.13;5005048;28;20026;-77
2023/04/14 03:28:22;;;;;;;4.13;3.38;;;;;;;11.96;43.78;92875.44;5004154;28;20524;-78
2023/04/14 03:30:51;;;;;;;7.68;4.00;;;;;;;11.94;43.79;92853.66;5007262;28;20057;-79
2023/04/14 03:33:21;;;;;;;7.20;3.78;;;;;;;11.95;43.92;92840.00;5003809;28;20040;-76
2023/04/14 03:35:46;;;;;;;6.60;3.58;;;;;;;11.80;43.76;92838.13;5004237;28;20033;-75
2023/04/14 03:38:15;;;;;;;7.35;4.18;;;;;;;11.70;44.29;92846.63;5005004;28;20040;-77
2023/04/14 03:40:43;;;;;;;6.55;4.40;;;;;;;11.73;44.75;92835.28;5003846;28;20044;-77
2023/04/14 03:43:11;;;;;;;5.82;4.38;;;;;;;11.63;44.54;92803.06;5004560;28;20021;-78
2023/04/14 03:45:39;;;;;;;8.38;4.90;;;;;;;11.34;44.87;92815.66;5005449;28;20644;-78
2023/04/14 03:48:10;;;;;;;6.03;4.70;;;;;;;11.33;45.18;92794.69;5005723;28;20141;-79
2023/04/14 03:50:40;;;;;;;4.55;4.03;;;;;;;11.62;44.64;92799.63;5005985;28;20405;-77
2023/04/14 03:53:08;;;;;;;6.70;4.05;;;;;;;11.69;44.99;92805.13;5002697;28;20078;-78
2023/04/14 03:55:36;;;;;;;6.25;3.97;;;;;;;11.25;45.29;92807.00;5004116;28;20042;-78
2023/04/14 03:58:05;;;;;;;8.82;4.43;;;;;;;11.18;45.15;92796.97;5004914;28;20026;-78
2023/04/14 04:00:31;;;;;;;6.07;4.10;;;;;;;11.56;44.70;92798.34;5005071;28;20041;-78
2023/04/14 04:02:57;;;;;;;7.95;4.55;;;;;;;11.65;44.45;92808.81;5005029;28;20037;-79
2023/04/14 04:05:23;;;;;;;7.35;4.78;;;;;;;11.70;44.21;92822.66;5003230;28;20046;-77
2023/04/14 04:07:49;;;;;;;8.55;5.35;;;;;;;11.45;44.40;92819.34;5006966;28;20167;-78
2023/04/14 04:10:16;;;;;;;7.68;5.43;;;;;;;11.47;44.50;92824.31;5003750;28;20124;-77
2023/04/14 04:12:43;;;;;;;11.15;4.88;;;;;;;11.46;44.41;92814.78;5007544;28;20029;-75
2023/04/14 04:15:08;;;;;;;11.70;4.82;;;;;;;11.36;44.84;92813.41;5003927;28;20037;-78
2023/04/14 04:17:36;;;;;;;12.85;4.88;;;;;;;11.32;44.45;92785.16;5004765;28;20034;-77
2023/04/14 04:20:06;;;;;;;7.57;4.97;;;;;;;11.26;44.69;92792.59;5003309;28;20077;-77
2023/04/14 04:22:35;;;;;;;5.85;4.68;;;;;;;11.37;45.24;92817.59;5006043;28;20629;-76
2023/04/14 04:25:01;;;;;;;6.78;4.50;;;;;;;11.46;44.86;92825.44;5003134;28;20156;-76
2023/04/14 04:27:27;;;;;;;5.32;4.07;;;;;;;11.42;44.93;92827.22;5004925;28;20376;-76
2023/04/14 04:29:53;;;;;;;5.95;4.13;;;;;;;11.24;45.24;92826.00;5002402;28;21014;-74
2023/04/14 04:32:19;;;;;;;5.55;3.90;;;;;;;10.99;45.60;92820.78;5004094;28;20131;-79
2023/04/14 04:34:47;;;;;;;8.30;5.10;;;;;;;10.75;46.56;92804.94;5006131;28;20053;-76
2023/04/14 04:37:12;;;;;;;5.13;3.78;;;;;;;10.75;46.77;92842.16;5004916;28;20042;-76
2023/04/14 04:39:38;;;;;;;5.53;4.07;;;;;;;10.91;46.79;92866.91;5004501;28;20034;-76
2023/04/14 04:42:05;;;;;;;7.70;4.57;;;;;;;10.97;46.17;92865.56;5005646;28;20052;-76
2023/04/14 04:44:32;;;;;;;6.10;4.60;;;;;;;10.98;46.80;92856.47;5003997;28;20228;-78
2023/04/14 04:46:58;;;;;;;5.95;4.63;;;;;;;11.12;45.90;92862.19;5006833;28;20056;-76
2023/04/14 04:49:23;;;;;;;7.28;4.25;;;;;;;11.04;46.38;92863.13;5002482;28;20358;-76
2023/04/14 04:51:49;;;;;;;5.90;3.50;;;;;;;10.93;46.12;92843.41;5007287;28;20095;-77
2023/04/14 04:54:15;;;;;;;7.47;3.80;;;;;;;10.37;46.86;92841.81;5004417;28;20092;-78
2023/04/14 04:56:40;;;;;;;8.63;4.10;;;;;;;10.74;46.73;92840.59;5003848;28;20277;-75
2023/04/14 04:59:06;;;;;;;9.82;5.10;;;;;;;11.25;46.06;92848.84;5005350;28;20037;-76
2023/04/14 05:01:32;;;;;;;9.30;6.15;;;;;;;11.51;46.57;92843.84;5004307;28;20033;-76
2023/04/14 05:03:57;;;;;;;7.47;3.92;;;;;;;11.49;46.01;92828.19;5002022;28;20045;-76
2023/04/14 05:06:23;;;;;;;6.47;4.30;;;;;;;11.75;44.80;92835.72;5006288;28;20080;-77
2023/04/14 05:08:52;;;;;;;6.28;4.55;;;;;;;11.64;45.51;92829.34;5003351;28;20038;-76
2023/04/14 05:11:18;;;;;;;12.02;9.18;;;;;;;11.86;46.09;92839.41;5004197;28;20463;-76
2023/04/14 05:13:43;;;;;;;13.20;6.80;;;;;;;11.73;45.92;92827.31;5003626;28;20034;-78
2023/04/14 05:16:12;;;;;;;14.02;7.55;;;;;;;11.74;45.82;92836.81;5004313;28;20029;-80
2023/04/14 05:18:37;;;;;;;10.43;6.60;;;;;;;11.78;46.96;92827.06;5002041;28;20064;-78
2023/04/14 05:21:05;;;;;;;10.25;6.35;;;;;;;11.97;46.10;92831.69;5004570;28;20120;-78
2023/04/14 05:23:35;;;;;;;6.18;4.80;;;;;;;11.15;46.12;92771.03;5006316;28;20171;-79
2023/04/14 05:26:02;;;;;;;8.85;5.40;;;;;;;11.26;46.75;92797.16;5014089;28;20045;-78
2023/04/14 05:28:27;;;;;;;10.52;8.40;;;;;;;11.60;45.99;92809.84;5007366;28;20575;-77
2023/04/14 05:30:53;;;;;;;14.45;8.65;;;;;;;11.83;45.57;92794.78;5007346;28;20116;-78
2023/04/14 05:33:19;;;;;;;8.60;6.25;;;;;;;12.03;45.75;92798.31;5004426;28;20038;-77
2023/04/14 05:35:45;;;;;;;7.72;5.85;;;;;;;11.87;45.36;92790.34;5007331;28;20054;-77
2023/04/14 05:38:11;;;;;;;6.68;5.22;;;;;;;12.22;45.83;92784.28;5007566;28;20042;-77
2023/04/14 05:40:36;;;;;;;11.50;5.07;;;;;;;12.36;45.40;92781.94;5005750;28;20042;-77
2023/04/14 05:43:02;;;;;;;6.72;5.25;;;;;;;12.27;45.24;92754.69;5008511;28;22103;-77
2023/04/14 05:45:28;;;;;;;7.00;5.65;;;;;;;11.55;46.23;92762.94;5005135;28;20025;-78
2023/04/14 05:47:54;;;;;;;11.77;5.35;;;;;;;11.80;46.37;92763.53;5008959;28;20161;-77
2023/04/14 05:50:21;;;;;;;15.10;5.50;;;;;;;11.52;46.66;92765.53;5005253;28;20876;-77
2023/04/14 05:52:46;;;;;;;11.45;5.65;;;;;;;11.29;46.72;92748.56;5007988;28;20392;-77
2023/04/14 05:55:12;;;;;;;14.93;5.88;;;;;;;11.61;45.98;92774.13;5006387;28;20451;-78
2023/04/14 05:57:37;;;;;;;14.30;6.15;;;;;;;11.07;47.71;92777.28;5009684;28;20461;-77
2023/04/14 06:00:03;;;;;;;8.98;5.75;;;;;;;11.42;47.47;92774.78;5006642;28;20048;-78
2023/04/14 06:02:28;;;;;;;13.95;6.05;;;;;;;11.73;46.42;92751.94;5007670;28;20041;-77
2023/04/14 06:04:53;;;;;;;10.27;6.25;;;;;;;12.24;45.16;92744.72;5007148;28;20030;-78
2023/04/14 06:07:19;;;;;;;11.52;5.00;;;;;;;12.36;45.19;92756.03;5007025;28;20504;-78
2023/04/14 06:09:47;;;;;;;9.65;5.85;;;;;;;12.28;45.73;92753.53;5005539;28;20082;-79
2023/04/14 06:12:13;;;;;;;10.07;5.22;;;;;;;12.42;45.56;92748.50;5006007;28;20625;-77
2023/04/14 06:14:39;;;;;;;10.85;5.20;;;;;;;12.30;44.87;92743.31;5005951;28;20071;-78
2023/04/14 06:17:04;;;;;;;9.68;5.60;;;;;;;12.35;44.95;92745.72;5007518;28;20493;-77
2023/04/14 06:19:30;;;;;;;11.18;5.60;;;;;;;12.44;44.27;92732.94;5003830;28;20045;-77
2023/04/14 06:21:55;;;;;;;9.35;5.18;;;;;;;12.47;44.09;92700.25;5007599;28;20029;-78
2023/04/14 06:24:20;;;;;;;9.93;3.78;;;;;;;12.10;44.34;92733.75;5006139;28;20038;-79
2023/04/14 06:26:46;;;;;;;8.15;3.35;;;;;;;10.82;46.17;92714.69;5006600;28;20037;-78
2023/04/14 06:29:11;;;;;;;12.43;3.63;;;;;;;10.95;47.16;92710.09;5005271;28;20663;-77
2023/04/14 06:31:37;;;;;;;5.72;3.55;;;;;;;10.49;46.91;92675.06;5006529;28;20034;-77
2023/04/14 06:34:02;;;;;;;5.97;3.83;;;;;;;10.47;47.57;92687.91;5005518;28;20510;-78
2023/04/14 06:36:27;;;;;;;6.28;3.13;;;;;;;10.75;47.07;92666.66;5009130;28;20014;-77
2023/04/14 06:38:53;;;;;;;7.07;3.50;;;;;;;10.11;48.48;92654.28;5005533;28;20034;-77
2023/04/14 06:41:18;;;;;;;7.35;4.68;;;;;;;9.67;49.48;92660.56;5005467;28;20133;-77
2023/04/14 06:43:45;;;;;;;8.82;3.72;;;;;;;9.55;49.67;92632.16;5005222;28;20029;-77
2023/04/14 06:46:10;;;;;;;7.93;3.42;;;;;;;9.69;49.91;92614.00;5007106;28;20033;-77
2023/04/14 06:48:35;;;;;;;5.05;3.90;;;;;;;9.94;49.27;92633.28;5004204;28;20037;-77
2023/04/14 06:51:01;;;;;;;10.55;4.25;;;;;;;9.96;49.30;92662.94;5006753;28;20091;-78
2023/04/14 06:53:26;;;;;;;7.10;4.10;;;;;;;10.32;48.43;92664.69;5004471;28;20034;-77
2023/04/14 06:55:57;;;;;;;8.57;4.32;;;;;;;10.55;48.04;92646.38;5007909;28;20060;-77
2023/04/14 06:58:27;;;;;;;7.22;3.15;;;;;;;10.77;46.85;92621.84;5006617;28;20047;-77
2023/04/14 07:00:57;;;;;;;8.77;3.47;;;;;;;11.24;46.76;92653.03;5005008;28;20555;-78
2023/04/14 07:03:23;;;;;;;9.93;4.93;;;;;;;11.22;47.44;92607.34;5006346;28;20041;-77
2023/04/14 07:05:49;;;;;;;7.40;4.18;;;;;;;11.11;48.08;92629.16;5002244;28;20041;-77
2023/04/14 07:08:15;;;;;;;9.10;4.15;;;;;;;11.35;46.79;92635.38;5006739;28;20041;-76
2023/04/14 07:10:40;;;;;;;8.98;4.45;;;;;;;11.30;46.87;92641.75;5006582;28;20076;-77
2023/04/14 07:13:05;;;;;;;7.00;4.28;;;;;;;11.31;46.41;92624.66;5006881;28;20124;-76
2023/04/14 07:15:31;;;;;;;7.68;4.28;;;;;;;11.65;45.81;92630.38;5005704;28;20412;-76
2023/04/14 07:17:56;;;;;;;7.28;4.45;;;;;;;11.88;46.00;92610.72;5005459;28;20508;-77
2023/04/14 07:20:22;;;;;;;13.23;4.43;;;;;;;11.97;45.39;92618.53;5004773;28;20037;-75
2023/04/14 07:22:47;;;;;;;11.93;4.50;;;;;;;12.07;45.63;92614.53;5003765;28;20026;-76
2023/04/14 07:25:13;;;;;;;6.93;4.43;;;;;;;12.34;45.31;92629.53;5011677;28;20022;-76
2023/04/14 07:27:38;;;;;;;9.85;4.93;;;;;;;12.52;44.97;92595.22;5006114;28;20034;-76
2023/04/14 07:30:04;;;;;;;5.22;3.20;;;;;;;12.71;44.08;92617.28;5003004;28;20033;-77
2023/04/14 07:32:30;;;;;;;10.18;4.32;;;;;;;12.61;44.75;92620.56;5012361;28;20033;-76
2023/04/14 07:34:56;;;;;;;7.55;3.65;;;;;;;12.66;44.51;92611.50;5004699;28;20034;-76
2023/04/14 07:37:22;;;;;;;12.82;4.00;;;;;;;12.87;43.56;92628.63;5005111;28;20025;-75
2023/04/14 07:39:47;;;;;;;10.90;3.63;;;;;;;13.09;42.13;92629.00;5011339;28;20025;-76
2023/04/14 07:42:13;;;;;;;10.00;3.70;;;;;;;13.28;41.92;92610.22;5005477;28;20459;-76
2023/04/14 07:44:38;;;;;;;4.93;2.90;;;;;;;13.41;41.92;92619.56;5003830;28;20030;-77
2023/04/14 07:47:04;;;;;;;7.32;3.03;;;;;;;13.16;41.70;92581.81;5004914;28;20099;-77
2023/04/14 07:49:30;;;;;;;7.43;3.55;;;;;;;13.34;41.27;92611.47;5003123;28;20456;-76
2023/04/14 07:51:56;;;;;;;8.13;3.38;;;;;;;13.54;41.93;92586.22;5006662;28;20025;-76
2023/04/14 07:54:22;;;;;;;6.97;3.30;;;;;;;13.93;42.35;92580.63;5006082;28;20037;-77
2023/04/14 07:56:47;;;;;;;7.00;3.03;;;;;;;14.12;40.55;92564.44;5003054;28;20408;-76
2023/04/14 07:59:13;;;;;;;9.25;3.47;;;;;;;13.97;40.24;92570.75;5004726;28;20076;-76
2023/04/14 08:01:38;;;;;;;9.02;3.33;;;;;;;13.82;41.51;92547.66;5005093;28;20582;-77
2023/04/14 08:04:04;;;;;;;7.15;2.47;;;;;;;14.27;37.49;92541.31;5003481;28;20053;-76
2023/04/14 08:06:29;;;;;;;11.32;3.47;;;;;;;14.53;37.47;92535.81;5006615;28;20481;-77
2023/04/14 08:08:55;;;;;;;22.77;3.50;;;;;;;14.77;35.32;92532.63;5005210;28;20053;-76
2023/04/14 08:11:20;;;;;;;8.00;2.80;;;;;;;14.84;35.24;92553.34;5006717;28;20084;-76
2023/04/14 08:13:48;;;;;;;14.43;3.33;;;;;;;14.80;36.62;92531.91;5002062;28;20042;-75
2023/04/14 08:16:14;;;;;;;16.23;4.28;;;;;;;14.90;37.72;92538.50;5004253;28;20504;-77
2023/04/14 08:18:40;;;;;;;10.55;2.55;;;;;;;15.14;31.77;92553.97;5004062;28;20044;-76
2023/04/14 08:21:06;;;;;;;14.77;2.90;;;;;;;15.39;32.69;92552.25;5003677;28;20041;-77
2023/04/14 08:23:31;;;;;;;17.45;3.72;;;;;;;15.88;31.25;92572.47;5003362;28;20402;-76
2023/04/14 08:25:57;;;;;;;8.45;2.17;;;;;;;15.83;30.37;92554.06;5005219;28;20045;-76
2023/04/14 08:28:23;;;;;;;14.77;2.75;;;;;;;16.10;29.62;92566.03;5002828;28;20159;-77
2023/04/14 08:30:49;;;;;;;17.45;2.95;;;;;;;16.14;30.23;92548.06;5005097;28;20026;-77
2023/04/14 08:33:14;;;;;;;23.98;2.83;;;;;;;16.30;29.56;92569.19;5006150;28;20566;-75
2023/04/14 08:35:40;;;;;;;19.75;2.95;;;;;;;16.41;29.51;92577.31;5002573;28;20033;-76
2023/04/14 08:38:05;;;;;;;24.65;4.30;;;;;;;16.30;29.53;92604.84;5003188;28;20033;-77
2023/04/14 08:40:41;;;;;;;17.98;3.50;;;;;;;16.40;29.62;92570.41;5004679;28;20042;-76
2023/04/14 08:43:07;;;;;;;19.80;3.47;;;;;;;16.55;30.52;92588.06;5019051;28;20600;-77
2023/04/14 08:45:34;;;;;;;26.27;4.18;;;;;;;16.53;30.77;92595.72;5004774;28;20048;-76
2023/04/14 08:48:02;;;;;;;14.63;2.83;;;;;;;16.50;30.60;92596.50;5004368;28;20034;-76
2023/04/14 08:51:03;;;;;;;18.65;4.07;;;;;;;16.62;29.87;92593.47;5003885;28;20045;-76
2023/04/14 08:53:31;;;;;;;22.55;2.72;;;;;;;16.58;29.09;92603.41;5002629;28;20041;-76
2023/04/14 08:56:01;;;;;;;22.10;3.53;;;;;;;16.81;30.56;92590.44;5005097;28;20053;-76
2023/04/14 08:58:28;;;;;;;27.20;3.30;;;;;;;17.06;30.21;92612.72;5006739;28;20046;-78
2023/04/14 09:00:54;;;;;;;18.52;3.28;;;;;;;16.77;28.83;92601.16;5008630;28;20606;-76
2023/04/14 09:03:20;;;;;;;18.15;3.92;;;;;;;16.92;29.37;92617.28;5007734;28;20069;-77
2023/04/14 09:05:46;;;;;;;29.85;4.38;;;;;;;17.01;29.85;92615.78;5006128;28;20124;-78
2023/04/14 09:08:12;;;;;;;20.38;3.15;;;;;;;17.19;28.59;92575.53;5008599;28;20038;-77
2023/04/14 09:10:40;;;;;;;13.10;3.13;;;;;;;17.37;29.39;92631.97;5004053;28;20407;-78
2023/04/14 09:13:07;;;;;;;14.93;2.72;;;;;;;17.09;29.36;92614.66;5008351;28;20358;-76
2023/04/14 09:15:34;;;;;;;14.75;3.30;;;;;;;17.35;30.30;92624.31;5007847;28;20262;-76
2023/04/14 09:17:59;;;;;;;19.27;2.78;;;;;;;17.16;29.41;92605.84;5007848;28;20041;-76
2023/04/14 09:20:25;;;;;;;30.58;4.25;;;;;;;17.36;28.56;92604.31;5007386;28;20444;-76
2023/04/14 09:22:51;;;;;;;20.70;2.88;;;;;;;17.16;28.92;92558.25;5007550;28;20026;-77
2023/04/14 09:25:18;;;;;;;22.23;3.90;;;;;;;17.20;28.45;92577.09;5006210;28;20072;-77
2023/04/14 09:27:44;;;;;;;11.50;3.13;;;;;;;17.24;29.10;92574.38;5007147;28;20369;-77
2023/04/14 09:30:10;;;;;;;20.13;3.97;;;;;;;17.16;28.95;92574.38;5008555;28;20046;-77
2023/04/14 09:32:37;;;;;;;19.30;2.65;;;;;;;17.06;28.77;92583.16;5007222;28;20036;-76
2023/04/14 09:35:03;;;;;;;13.30;3.00;;;;;;;16.81;29.17;92547.50;5008414;28;20049;-76
2023/04/14 09:37:41;;;;;;;13.00;3.88;;;;;;;17.33;29.76;92609.69;5006543;28;20037;-76
2023/04/14 09:40:07;;;;;;;18.98;3.65;;;;;;;17.30;29.76;92610.47;5007723;28;20026;-77
2023/04/14 09:42:37;;;;;;;16.67;3.85;;;;;;;17.09;30.12;92595.84;5005931;28;20036;-76
2023/04/14 09:45:04;;;;;;;14.73;3.17;;;;;;;17.20;30.62;92597.81;5007113;28;22808;-77
2023/04/14 09:47:31;;;;;;;23.23;3.20;;;;;;;17.24;30.39;92598.56;5006190;28;20564;-77
2023/04/14 09:50:04;;;;;;;22.75;2.83;;;;;;;17.29;31.07;92620.44;5010180;28;20045;-76
2023/04/14 09:52:40;;;;;;;16.75;4.53;;;;;;;17.36;29.86;92619.66;5006992;28;20617;-77
2023/04/14 09:55:14;;;;;;;11.90;2.58;;;;;;;17.26;30.71;92615.09;5004318;28;20116;-76
2023/04/14 09:57:46;;;;;;;11.82;2.50;;;;;;;17.05;30.81;92634.59;5006261;28;20029;-76
2023/04/14 10:00:14;;;;;;;23.20;3.53;;;;;;;16.99;31.46;92612.72;5003483;28;20087;-76
2023/04/14 10:03:06;;;;;;;14.63;3.00;;;;;;;16.78;31.41;92636.84;4988212;28;20046;-77
2023/04/14 10:05:31;;;;;;;20.15;4.00;;;;;;;16.76;31.58;92617.66;4985586;28;20598;-77
2023/04/14 10:08:06;;;;;;;19.55;3.13;;;;;;;16.99;31.18;92649.53;4984427;28;20038;-76
2023/04/14 10:10:31;;;;;;;25.02;4.28;;;;;;;16.87;32.33;92626.50;4985919;28;20192;-76
2023/04/14 10:12:58;;;;;;;10.93;2.75;;;;;;;16.86;31.96;92651.81;4987844;28;20026;-78
2023/04/14 10:15:24;;;;;;;11.95;2.97;;;;;;;17.03;32.33;92644.94;5004927;28;20291;-77
2023/04/14 10:17:49;;;;;;;13.98;2.83;;;;;;;17.04;32.76;92655.31;5007540;28;20452;-76
2023/04/14 10:20:15;;;;;;;14.35;2.50;;;;;;;17.12;32.02;92653.41;5004398;28;20045;-76
2023/04/14 10:22:41;;;;;;;16.13;4.07;;;;;;;16.79;32.32;92689.38;5006457;28;20033;-76
2023/04/14 10:25:08;;;;;;;13.75;2.92;;;;;;;16.57;33.21;92728.81;5005175;28;20033;-76
2023/04/14 10:27:34;;;;;;;12.68;3.35;;;;;;;16.47;35.73;92712.66;5007753;28;20148;-76
2023/04/14 10:30:00;;;;;;;16.33;2.92;;;;;;;16.41;35.11;92731.00;5006525;28;20068;-77
2023/04/14 10:32:32;;;;;;;25.55;4.50;;;;;;;16.08;36.16;92737.31;5006643;28;20026;-76
2023/04/14 10:35:11;;;;;;;13.90;2.92;;;;;;;16.13;37.50;92766.47;5014441;28;20326;-76
2023/04/14 10:37:36;;;;;;;13.07;3.22;;;;;;;15.50;40.21;92804.19;5005590;28;20652;-76
2023/04/14 10:40:05;;;;;;;19.38;3.90;;;;;;;14.97;44.23;92808.91;5009983;28;20037;-76
2023/04/14 10:42:54;;;;;;;20.13;4.18;;;;;;;14.34;46.41;92824.84;5006579;28;20446;-77
2023/04/14 10:45:20;;;;;;;12.02;2.97;;;;;;;14.14;50.26;92864.28;5005715;28;20814;-78
2023/04/14 10:47:46;;;;;;;7.20;2.55;;;;;;;13.50;52.03;92851.69;5005321;28;20057;-76
2023/04/14 10:50:19;;;;;;;6.70;1.80;;;;;;;13.18;54.40;92899.91;5007820;28;20073;-77
2023/04/14 10:52:55;;;;;;;7.25;2.13;;;;;;;13.00;55.38;92930.03;5007377;28;20039;-76
2023/04/14 10:55:23;;;;;;;4.28;2.00;;;;;;;12.81;53.26;92955.53;5005296;28;20038;-77
2023/04/14 10:57:48;;;;;;;7.65;1.40;;;;;;;12.45;53.64;92942.50;5005061;28;20413;-77
2023/04/14 11:00:20;;;;;;;3.13;1.20;;;;;;;12.55;52.58;92965.97;5007672;28;20041;-76
2023/04/14 11:02:56;;;;;;;1.73;0.80;;;;;;;12.01;50.93;92979.09;5006419;28;20034;-77
2023/04/14 11:05:21;;;;;;;1.77;0.70;;;;;;;11.64;51.23;92953.75;5005839;28;20103;-76
2023/04/14 11:07:52;;;;;;;1.95;0.80;;;;;;;11.87;50.92;92992.03;5004231;28;20129;-79
2023/04/14 11:10:20;;;;;;;3.42;0.70;;;;;;;11.80;51.09;93008.59;5003097;28;20677;-77
2023/04/14 11:12:59;;;;;;;1.33;0.63;;;;;;;11.64;51.37;93029.06;5006275;28;20143;-76
2023/04/14 11:15:42;;;;;;;1.52;0.60;;;;;;;11.39;50.39;93030.25;5003324;28;20045;-76
2023/04/14 11:18:16;;;;;;;1.85;0.52;;;;;;;11.05;50.15;93031.53;5019522;28;20665;-78
2023/04/14 11:20:41;;;;;;;1.30;0.63;;;;;;;10.50;50.53;93013.44;5021890;28;20405;-77
2023/04/14 11:23:08;;;;;;;1.35;0.50;;;;;;;10.35;51.52;92992.81;5002763;28;20045;-78
2023/04/14 11:25:33;;;;;;;0.60;0.60;;;;;;;10.35;51.04;93008.75;5005497;28;20034;-78
2023/04/14 11:28:02;;;;;;;3.15;0.75;;;;;;;10.36;51.40;93020.94;5003742;28;20032;-77
2023/04/14 11:30:28;;;;;;;0.85;0.60;;;;;;;9.96;50.63;92973.69;5005593;28;20119;-76
2023/04/14 11:32:58;;;;;;;1.55;0.90;;;;;;;10.24;50.71;93027.78;5004259;28;20137;-77